createdAt,value
2018-06-15T00:00:35.043Z,32.50
2018-06-15T00:01:35.031Z,31.80
2018-06-15T00:02:35.014Z,33.50
2018-06-15T00:03:35.001Z,39.70
2018-06-15T00:04:34.987Z,35.30
2018-06-15T00:05:34.972Z,33.50
2018-06-15T00:06:34.957Z,31.50
2018-06-15T00:07:34.943Z,31.60
2018-06-15T00:08:34.936Z,35.90
2018-06-15T00:09:34.914Z,36.00
2018-06-15T00:10:34.903Z,33.60
2018-06-15T00:11:34.885Z,34.90
2018-06-15T00:12:34.872Z,37.40
2018-06-15T00:13:34.863Z,33.30
2018-06-15T00:14:34.842Z,31.70
2018-06-15T00:15:34.826Z,33.40
2018-06-15T00:16:34.815Z,35.20
2018-06-15T00:17:34.806Z,33.40
2018-06-15T00:18:34.784Z,36.90
2018-06-15T00:19:34.770Z,32.40
2018-06-15T00:20:34.754Z,33.60
2018-06-15T00:21:34.753Z,35.70
2018-06-15T00:22:34.725Z,35.30
2018-06-15T00:23:34.712Z,37.90
2018-06-15T00:24:34.706Z,35.40
2018-06-15T00:25:34.681Z,36.40
2018-06-15T00:26:34.673Z,37.30
2018-06-15T00:27:34.654Z,35.90
2018-06-15T00:28:34.639Z,34.50
2018-06-15T00:29:34.639Z,37.30
2018-06-15T00:30:34.611Z,39.00
2018-06-15T00:31:34.596Z,40.00
2018-06-15T00:32:34.585Z,40.30
2018-06-15T00:33:34.566Z,37.70
2018-06-15T00:34:34.553Z,38.20
2018-06-15T00:35:34.541Z,38.00
2018-06-15T00:36:34.523Z,39.80
2018-06-15T00:37:34.518Z,40.00
2018-06-15T00:38:34.499Z,37.40
2018-06-15T00:39:34.483Z,36.20
2018-06-15T00:40:34.464Z,40.00
2018-06-15T00:41:34.451Z,41.20
2018-06-15T00:42:34.439Z,38.80
2018-06-15T00:43:34.427Z,40.70
2018-06-15T00:44:34.410Z,38.90
2018-06-15T00:45:34.393Z,40.60
2018-06-15T00:46:34.380Z,39.60
2018-06-15T00:47:34.364Z,42.40
2018-06-15T00:48:34.350Z,38.80
2018-06-15T00:49:34.344Z,38.90
2018-06-15T00:50:34.322Z,40.20
2018-06-15T00:51:34.312Z,41.20
2018-06-15T00:52:34.289Z,38.40
2018-06-15T00:53:34.278Z,43.20
2018-06-15T00:54:34.261Z,40.90
2018-06-15T00:55:34.246Z,41.70
2018-06-15T00:56:34.230Z,38.70
2018-06-15T00:57:34.225Z,40.30
2018-06-15T00:58:34.201Z,40.40
2018-06-15T00:59:34.189Z,40.20
2018-06-15T01:00:34.183Z,43.20
2018-06-15T01:01:34.166Z,42.60
2018-06-15T01:02:34.145Z,38.70
2018-06-15T01:03:34.129Z,42.90
2018-06-15T01:04:34.113Z,39.50
2018-06-15T01:05:34.100Z,42.60
2018-06-15T01:06:34.089Z,39.60
2018-06-15T01:07:34.072Z,42.80
2018-06-15T01:08:34.059Z,43.20
2018-06-15T01:09:34.041Z,45.30
2018-06-15T01:10:34.029Z,41.10
2018-06-15T01:11:34.020Z,45.60
2018-06-15T01:12:33.997Z,41.50
2018-06-15T01:13:33.993Z,43.40
2018-06-15T01:14:33.968Z,51.00
2018-06-15T01:15:33.955Z,43.20
2018-06-15T01:16:33.939Z,45.70
2018-06-15T01:17:33.925Z,47.80
2018-06-15T01:18:33.909Z,46.30
2018-06-15T01:19:33.905Z,44.10
2018-06-15T01:20:33.883Z,49.10
2018-06-15T01:21:33.866Z,46.20
2018-06-15T01:22:33.876Z,46.70
2018-06-15T01:23:33.836Z,50.40
2018-06-15T01:24:33.826Z,50.20
2018-06-15T01:25:33.808Z,48.10
2018-06-15T01:26:33.793Z,50.20
2018-06-15T01:27:33.779Z,52.60
2018-06-15T01:28:33.764Z,52.70
2018-06-15T01:29:33.753Z,50.10
2018-06-15T01:30:33.735Z,50.90
2018-06-15T01:31:33.719Z,49.00
2018-06-15T01:32:33.714Z,50.40
2018-06-15T01:33:33.699Z,51.00
2018-06-15T01:34:33.676Z,50.60
2018-06-15T01:35:33.661Z,54.30
2018-06-15T01:36:33.647Z,51.10
2018-06-15T01:37:33.634Z,55.50
2018-06-15T01:38:33.619Z,53.80
2018-06-15T01:39:33.610Z,56.80
2018-06-15T01:40:33.592Z,48.70
2018-06-15T01:41:33.579Z,54.40
2018-06-15T01:42:33.559Z,51.80
2018-06-15T01:43:33.545Z,51.70
2018-06-15T01:44:33.531Z,49.60
2018-06-15T01:45:33.515Z,53.40
2018-06-15T01:46:33.501Z,52.30
2018-06-15T01:47:33.488Z,55.00
2018-06-15T01:48:33.471Z,53.80
2018-06-15T01:49:33.463Z,55.60
2018-06-15T01:50:33.443Z,57.40
2018-06-15T01:51:33.428Z,57.80
2018-06-15T01:52:33.413Z,60.20
2018-06-15T01:53:33.398Z,53.30
2018-06-15T01:54:33.384Z,56.40
2018-06-15T01:55:33.413Z,60.20
2018-06-15T01:56:33.353Z,58.90
2018-06-15T01:57:33.339Z,62.00
2018-06-15T01:58:33.323Z,56.70
2018-06-15T01:59:33.308Z,60.90
2018-06-15T02:00:33.295Z,63.30
2018-06-15T02:01:33.303Z,59.30
2018-06-15T02:02:33.266Z,58.50
2018-06-15T02:03:33.250Z,60.70
2018-06-15T02:04:33.234Z,56.50
2018-06-15T02:05:33.221Z,55.00
2018-06-15T02:06:33.207Z,64.40
2018-06-15T02:07:33.191Z,56.20
2018-06-15T02:08:33.176Z,55.50
2018-06-15T02:09:33.163Z,57.40
2018-06-15T02:10:33.146Z,56.40
2018-06-15T02:11:33.133Z,56.50
2018-06-15T02:12:33.114Z,59.00
2018-06-15T02:13:33.115Z,53.50
2018-06-15T02:14:33.085Z,53.00
2018-06-15T02:15:33.070Z,54.80
2018-06-15T02:16:33.206Z,55.20
2018-06-15T02:17:33.044Z,54.30
2018-06-15T02:18:33.027Z,59.70
2018-06-15T02:19:33.011Z,57.60
2018-06-15T02:20:33.011Z,53.90
2018-06-15T02:21:32.981Z,59.40
2018-06-15T02:22:32.965Z,61.40
2018-06-15T02:23:32.959Z,61.70
2018-06-15T02:24:32.953Z,57.30
2018-06-15T02:25:32.920Z,62.40
2018-06-15T02:26:32.913Z,59.10
2018-06-15T02:27:32.890Z,62.50
2018-06-15T02:28:32.875Z,60.40
2018-06-15T02:29:32.859Z,58.50
2018-06-15T02:30:32.845Z,71.50
2018-06-15T02:31:32.829Z,61.80
2018-06-15T02:32:32.814Z,62.00
2018-06-15T02:33:32.799Z,59.00
2018-06-15T02:34:32.785Z,61.90
2018-06-15T02:35:32.770Z,54.90
2018-06-15T02:36:32.755Z,54.20
2018-06-15T02:37:32.741Z,53.20
2018-06-15T02:38:32.725Z,56.20
2018-06-15T02:39:32.711Z,55.00
2018-06-15T02:40:32.692Z,54.20
2018-06-15T02:41:32.678Z,57.00
2018-06-15T02:42:32.664Z,57.60
2018-06-15T02:43:32.651Z,61.70
2018-06-15T02:44:32.632Z,68.30
2018-06-15T02:45:32.714Z,67.10
2018-06-15T02:46:32.602Z,62.60
2018-06-15T02:47:32.594Z,65.90
2018-06-15T02:48:32.571Z,61.30
2018-06-15T02:49:32.556Z,62.40
2018-06-15T02:50:32.543Z,64.30
2018-06-15T02:51:32.526Z,58.80
2018-06-15T02:52:32.513Z,61.30
2018-06-15T02:53:32.494Z,63.10
2018-06-15T02:54:32.480Z,61.00
2018-06-15T02:55:32.464Z,64.30
2018-06-15T02:56:32.450Z,64.70
2018-06-15T02:57:32.434Z,64.60
2018-06-15T02:58:32.421Z,70.40
2018-06-15T02:59:32.403Z,62.70
2018-06-15T03:00:32.389Z,64.80
2018-06-15T03:01:32.378Z,65.80
2018-06-15T03:02:32.558Z,64.30
2018-06-15T03:03:32.345Z,61.90
2018-06-15T03:04:32.327Z,54.80
2018-06-15T03:05:32.314Z,52.10
2018-06-15T03:06:32.300Z,57.40
2018-06-15T03:07:32.296Z,56.60
2018-06-15T03:08:32.270Z,58.10
2018-06-15T03:09:32.254Z,59.20
2018-06-15T03:10:32.237Z,56.20
2018-06-15T03:11:32.221Z,54.50
2018-06-15T03:12:32.208Z,58.40
2018-06-15T03:13:32.191Z,61.80
2018-06-15T03:14:32.178Z,53.90
2018-06-15T03:15:32.169Z,51.60
2018-06-15T03:16:32.145Z,59.90
2018-06-15T03:17:32.131Z,59.00
2018-06-15T03:18:32.116Z,59.80
2018-06-15T03:19:32.103Z,60.90
2018-06-15T03:20:32.087Z,56.60
2018-06-15T03:21:32.071Z,61.40
2018-06-15T03:22:32.055Z,61.20
2018-06-15T03:23:32.041Z,56.80
2018-06-15T03:24:32.077Z,61.20
2018-06-15T03:25:32.011Z,66.50
2018-06-15T03:26:31.996Z,67.00
2018-06-15T03:27:31.978Z,65.90
2018-06-15T03:28:31.962Z,71.00
2018-06-15T03:29:31.953Z,65.70
2018-06-15T03:30:31.942Z,67.20
2018-06-15T03:31:31.921Z,72.70
2018-06-15T03:32:31.903Z,69.50
2018-06-15T03:33:31.890Z,68.70
2018-06-15T03:34:31.888Z,67.60
2018-06-15T03:35:31.858Z,65.20
2018-06-15T03:36:31.851Z,66.30
2018-06-15T03:37:31.875Z,67.30
2018-06-15T03:38:31.817Z,61.70
2018-06-15T03:39:31.797Z,71.00
2018-06-15T03:40:31.782Z,65.10
2018-06-15T03:41:31.768Z,69.70
2018-06-15T03:42:31.753Z,64.60
2018-06-15T03:43:31.739Z,66.90
2018-06-15T03:44:31.723Z,65.80
2018-06-15T03:45:31.708Z,60.90
2018-06-15T03:46:31.694Z,66.70
2018-06-15T03:47:31.679Z,65.40
2018-06-15T03:48:31.663Z,66.10
2018-06-15T03:49:31.658Z,64.10
2018-06-15T03:50:31.633Z,69.30
2018-06-15T03:51:31.736Z,67.30
2018-06-15T03:52:31.602Z,70.00
2018-06-15T03:53:31.590Z,66.90
2018-06-15T03:54:31.574Z,63.50
2018-06-15T03:55:31.557Z,62.80
2018-06-15T03:56:31.543Z,68.40
2018-06-15T03:57:31.529Z,68.80
2018-06-15T03:58:31.516Z,67.80
2018-06-15T03:59:31.499Z,64.90
2018-06-15T04:00:31.491Z,69.80
2018-06-15T04:01:31.472Z,67.90
2018-06-15T04:02:31.454Z,67.20
2018-06-15T04:03:31.439Z,68.20
2018-06-15T04:04:31.427Z,69.30
2018-06-15T04:05:31.410Z,67.30
2018-06-15T04:06:31.395Z,69.80
2018-06-15T04:07:31.489Z,66.60
2018-06-15T04:08:31.367Z,69.00
2018-06-15T04:09:31.351Z,70.50
2018-06-15T04:10:31.344Z,69.90
2018-06-15T04:11:31.321Z,66.70
2018-06-15T04:12:31.316Z,68.10
2018-06-15T04:13:31.291Z,62.30
2018-06-15T04:14:31.277Z,68.40
2018-06-15T04:15:31.263Z,66.30
2018-06-15T04:16:31.248Z,68.50
2018-06-15T04:17:31.232Z,69.60
2018-06-15T04:18:31.218Z,66.40
2018-06-15T04:19:31.202Z,68.10
2018-06-15T04:20:31.188Z,65.50
2018-06-15T04:21:31.174Z,65.20
2018-06-15T04:22:31.158Z,66.50
2018-06-15T04:23:31.142Z,70.00
2018-06-15T04:24:31.130Z,65.10
2018-06-15T04:25:31.115Z,62.40
2018-06-15T04:26:31.100Z,63.90
2018-06-15T04:27:31.085Z,66.50
2018-06-15T04:28:31.070Z,64.70
2018-06-15T04:29:31.057Z,64.10
2018-06-15T04:30:31.041Z,62.90
2018-06-15T04:31:31.027Z,68.60
2018-06-15T04:32:31.020Z,64.60
2018-06-15T04:33:30.998Z,66.60
2018-06-15T04:34:30.986Z,63.90
2018-06-15T04:35:30.966Z,64.40
2018-06-15T04:36:30.953Z,65.90
2018-06-15T04:37:30.938Z,63.70
2018-06-15T04:38:30.924Z,66.60
2018-06-15T04:39:30.910Z,62.00
2018-06-15T04:40:30.892Z,65.90
2018-06-15T04:41:30.880Z,64.00
2018-06-15T04:42:30.876Z,61.20
2018-06-15T04:43:30.850Z,63.80
2018-06-15T04:44:30.845Z,67.50
2018-06-15T04:45:30.821Z,67.60
2018-06-15T04:46:30.808Z,60.50
2018-06-15T04:47:30.791Z,66.80
2018-06-15T04:48:30.779Z,67.40
2018-06-15T04:49:30.763Z,62.60
2018-06-15T04:50:30.748Z,61.70
2018-06-15T04:51:30.734Z,60.20
2018-06-15T04:52:30.720Z,66.30
2018-06-15T04:53:30.706Z,62.10
2018-06-15T04:54:30.693Z,60.20
2018-06-15T04:55:30.675Z,62.40
2018-06-15T04:56:30.662Z,62.10
2018-06-15T04:57:30.656Z,65.40
2018-06-15T04:58:30.632Z,64.30
2018-06-15T04:59:30.634Z,62.50
2018-06-15T05:00:30.611Z,67.10
2018-06-15T05:01:30.589Z,63.20
2018-06-15T05:02:30.577Z,58.10
2018-06-15T05:03:30.569Z,60.80
2018-06-15T05:04:30.546Z,58.50
2018-06-15T05:05:30.540Z,61.00
2018-06-15T05:06:30.522Z,58.90
2018-06-15T05:07:30.503Z,57.10
2018-06-15T05:08:30.498Z,61.20
2018-06-15T05:09:30.476Z,63.40
2018-06-15T05:10:30.462Z,61.30
2018-06-15T05:11:30.448Z,58.30
2018-06-15T05:12:30.436Z,59.90
2018-06-15T05:13:30.420Z,55.80
2018-06-15T05:14:30.407Z,60.90
2018-06-15T05:15:30.410Z,59.50
2018-06-15T05:16:30.376Z,60.00
2018-06-15T05:17:30.364Z,58.00
2018-06-15T05:18:30.357Z,55.30
2018-06-15T05:19:30.337Z,65.20
2018-06-15T05:20:30.329Z,69.00
2018-06-15T05:21:30.306Z,59.40
2018-06-15T05:22:30.291Z,57.30
2018-06-15T05:23:30.278Z,54.40
2018-06-15T05:24:30.263Z,60.40
2018-06-15T05:25:30.250Z,60.00
2018-06-15T05:26:30.250Z,58.10
2018-06-15T05:27:30.225Z,54.70
2018-06-15T05:28:30.206Z,57.00
2018-06-15T05:29:30.195Z,57.40
2018-06-15T05:30:30.181Z,58.50
2018-06-15T05:31:30.165Z,58.70
2018-06-15T05:32:30.152Z,56.90
2018-06-15T05:33:30.138Z,56.60
2018-06-15T05:34:30.124Z,57.10
2018-06-15T05:35:30.110Z,61.50
2018-06-15T05:36:30.098Z,54.80
2018-06-15T05:37:30.082Z,53.50
2018-06-15T05:38:30.068Z,58.70
2018-06-15T05:39:30.055Z,53.80
2018-06-15T05:40:30.042Z,53.10
2018-06-15T05:41:30.035Z,55.20
2018-06-15T05:42:30.013Z,59.20
2018-06-15T05:43:29.999Z,50.30
2018-06-15T05:44:29.986Z,55.30
2018-06-15T05:45:29.979Z,54.10
2018-06-15T05:46:29.959Z,57.50
2018-06-15T05:47:29.945Z,58.20
2018-06-15T05:48:29.943Z,62.80
2018-06-15T05:49:29.918Z,54.40
2018-06-15T05:50:29.903Z,59.40
2018-06-15T05:51:29.892Z,58.80
2018-06-15T05:52:29.878Z,57.50
2018-06-15T05:53:29.864Z,59.30
2018-06-15T05:54:29.848Z,54.30
2018-06-15T05:55:29.837Z,55.10
2018-06-15T05:56:29.826Z,54.60
2018-06-15T05:57:29.815Z,52.00
2018-06-15T05:58:29.797Z,52.60
2018-06-15T05:59:29.781Z,55.10
2018-06-15T06:00:29.793Z,63.00
2018-06-15T06:01:29.752Z,51.00
2018-06-15T06:02:29.739Z,53.70
2018-06-15T06:03:29.729Z,55.40
2018-06-15T06:04:29.720Z,52.90
2018-06-15T06:05:29.700Z,55.30
2018-06-15T06:06:29.684Z,54.10
2018-06-15T06:07:29.679Z,57.20
2018-06-15T06:08:29.659Z,57.90
2018-06-15T06:09:29.646Z,57.40
2018-06-15T06:10:29.642Z,57.70
2018-06-15T06:11:29.620Z,53.70
2018-06-15T06:12:29.613Z,52.50
2018-06-15T06:13:29.592Z,53.30
2018-06-15T06:14:29.579Z,51.90
2018-06-15T06:15:29.565Z,50.10
2018-06-15T06:16:29.551Z,54.20
2018-06-15T06:17:29.538Z,56.90
2018-06-15T06:18:29.525Z,53.00
2018-06-15T06:19:29.510Z,53.40
2018-06-15T06:20:29.498Z,48.90
2018-06-15T06:21:29.484Z,56.40
2018-06-15T06:22:29.473Z,49.80
2018-06-15T06:23:29.465Z,55.50
2018-06-15T06:24:29.445Z,60.20
2018-06-15T06:25:29.431Z,58.30
2018-06-15T06:26:29.418Z,55.30
2018-06-15T06:27:29.404Z,57.70
2018-06-15T06:28:29.400Z,56.10
2018-06-15T06:29:29.378Z,56.40
2018-06-15T06:30:29.366Z,53.00
2018-06-15T06:31:29.356Z,51.90
2018-06-15T06:32:29.386Z,55.80
2018-06-15T06:33:29.330Z,47.10
2018-06-15T06:34:29.316Z,50.90
2018-06-15T06:35:29.313Z,47.20
2018-06-15T06:36:29.298Z,47.10
2018-06-15T06:37:29.283Z,50.00
2018-06-15T06:38:29.274Z,46.70
2018-06-15T06:39:29.267Z,47.30
2018-06-15T06:40:29.251Z,48.00
2018-06-15T06:41:29.249Z,47.20
2018-06-15T06:42:29.232Z,48.40
2018-06-15T06:43:29.221Z,50.70
2018-06-15T06:44:29.211Z,44.60
2018-06-15T06:45:29.200Z,48.90
2018-06-15T06:46:29.192Z,46.40
2018-06-15T06:47:29.190Z,47.30
2018-06-15T06:48:29.170Z,49.00
2018-06-15T06:49:29.162Z,46.70
2018-06-15T06:50:29.201Z,50.40
2018-06-15T06:51:29.141Z,48.00
2018-06-15T06:52:29.131Z,44.40
2018-06-15T06:53:29.125Z,48.80
2018-06-15T06:54:29.124Z,47.50
2018-06-15T06:55:29.104Z,46.40
2018-06-15T06:56:29.096Z,44.50
2018-06-15T06:57:29.087Z,45.80
2018-06-15T06:58:29.129Z,42.30
2018-06-15T06:59:29.069Z,42.10
2018-06-15T07:00:29.061Z,41.60
2018-06-15T07:01:29.048Z,42.00
2018-06-15T07:02:29.039Z,45.40
2018-06-15T07:03:29.031Z,46.90
2018-06-15T07:04:29.018Z,45.70
2018-06-15T07:05:29.010Z,49.10
2018-06-15T07:06:28.998Z,45.00
2018-06-15T07:07:28.991Z,41.30
2018-06-15T07:08:28.984Z,45.50
2018-06-15T07:09:28.968Z,42.20
2018-06-15T07:10:28.959Z,50.30
2018-06-15T07:11:28.949Z,55.40
2018-06-15T07:12:28.936Z,47.50
2018-06-15T07:13:28.929Z,42.60
2018-06-15T07:14:28.925Z,50.90
2018-06-15T07:15:28.904Z,46.90
2018-06-15T07:16:28.893Z,48.30
2018-06-15T07:17:28.899Z,44.20
2018-06-15T07:18:28.871Z,51.00
2018-06-15T07:19:28.860Z,51.80
2018-06-15T07:20:28.857Z,47.30
2018-06-15T07:21:28.842Z,45.30
2018-06-15T07:22:28.829Z,48.20
2018-06-15T07:23:28.817Z,45.20
2018-06-15T07:24:28.806Z,44.60
2018-06-15T07:25:28.797Z,47.50
2018-06-15T07:26:28.783Z,48.90
2018-06-15T07:27:28.773Z,45.30
2018-06-15T07:28:28.760Z,43.60
2018-06-15T07:29:28.760Z,45.30
2018-06-15T07:30:28.738Z,50.70
2018-06-15T07:31:28.728Z,48.60
2018-06-15T07:32:28.724Z,47.60
2018-06-15T07:33:28.770Z,46.50
2018-06-15T07:34:28.692Z,43.30
2018-06-15T07:35:28.680Z,43.90
2018-06-15T07:36:28.770Z,48.60
2018-06-15T07:37:28.665Z,46.10
2018-06-15T07:38:28.646Z,46.30
2018-06-15T07:39:28.696Z,46.30
2018-06-15T07:40:28.620Z,44.20
2018-06-15T07:41:28.609Z,46.30
2018-06-15T07:42:28.610Z,46.00
2018-06-15T07:43:28.588Z,45.80
2018-06-15T07:44:28.577Z,46.60
2018-06-15T07:45:28.562Z,46.90
2018-06-15T07:46:28.549Z,45.50
2018-06-15T07:47:28.535Z,44.10
2018-06-15T07:48:28.527Z,48.40
2018-06-15T07:49:28.521Z,42.50
2018-06-15T07:50:28.501Z,43.90
2018-06-15T07:51:28.487Z,45.70
2018-06-15T07:52:28.648Z,45.50
2018-06-15T07:53:28.473Z,46.00
2018-06-15T07:54:28.456Z,48.30
2018-06-15T07:55:28.439Z,45.50
2018-06-15T07:56:28.426Z,43.70
2018-06-15T07:57:28.416Z,48.80
2018-06-15T07:58:28.403Z,48.80
2018-06-15T07:59:28.439Z,51.80
2018-06-15T08:00:28.377Z,48.50
2018-06-15T08:01:28.365Z,47.80
2018-06-15T08:02:28.359Z,55.40
2018-06-15T08:03:28.342Z,45.20
2018-06-15T08:04:28.330Z,48.00
2018-06-15T08:05:28.324Z,49.70
2018-06-15T08:06:28.305Z,46.00
2018-06-15T08:07:28.294Z,48.00
2018-06-15T08:08:28.434Z,49.50
2018-06-15T08:09:28.287Z,47.60
2018-06-15T08:10:28.259Z,43.40
2018-06-15T08:11:28.247Z,45.00
2018-06-15T08:12:28.236Z,45.30
2018-06-15T08:13:28.231Z,45.30
2018-06-15T08:14:28.224Z,42.90
2018-06-15T08:15:28.215Z,41.70
2018-06-15T08:16:28.202Z,41.80
2018-06-15T08:17:28.185Z,40.80
2018-06-15T08:18:28.182Z,41.90
2018-06-15T08:19:28.173Z,44.10
2018-06-15T08:20:28.159Z,42.40
2018-06-15T08:21:28.144Z,41.40
2018-06-15T08:22:28.134Z,39.80
2018-06-15T08:23:28.129Z,44.00
2018-06-15T08:24:28.163Z,42.20
2018-06-15T08:25:28.104Z,35.00
2018-06-15T08:26:28.102Z,34.00
2018-06-15T08:27:28.083Z,33.70
2018-06-15T08:28:28.074Z,36.80
2018-06-15T08:29:28.068Z,35.20
2018-06-15T08:30:28.055Z,36.30
2018-06-15T08:31:28.061Z,35.30
2018-06-15T08:32:28.035Z,38.10
2018-06-15T08:33:28.026Z,37.20
2018-06-15T08:34:28.020Z,36.40
2018-06-15T08:35:28.007Z,34.50
2018-06-15T08:36:27.997Z,35.00
2018-06-15T08:37:27.996Z,31.50
2018-06-15T08:38:27.979Z,38.60
2018-06-15T08:39:27.971Z,42.00
2018-06-15T08:40:27.958Z,34.00
2018-06-15T08:41:27.948Z,32.70
2018-06-15T08:42:27.941Z,35.30
2018-06-15T08:43:27.931Z,35.80
2018-06-15T08:44:27.924Z,32.30
2018-06-15T08:45:28.012Z,33.00
2018-06-15T08:46:27.908Z,29.90
2018-06-15T08:47:27.892Z,27.40
2018-06-15T08:48:27.884Z,31.00
2018-06-15T08:49:27.873Z,30.70
2018-06-15T08:50:27.866Z,27.60
2018-06-15T08:51:27.864Z,30.10
2018-06-15T08:52:27.847Z,30.30
2018-06-15T08:53:27.837Z,30.20
2018-06-15T08:54:27.828Z,31.60
2018-06-15T08:55:27.827Z,26.50
2018-06-15T08:56:27.809Z,24.70
2018-06-15T08:57:27.799Z,24.10
2018-06-15T08:58:27.798Z,21.90
2018-06-15T08:59:27.789Z,22.20
2018-06-15T09:00:27.784Z,22.90
2018-06-15T09:01:27.812Z,25.20
2018-06-15T09:02:27.754Z,27.10
2018-06-15T09:03:27.748Z,24.50
2018-06-15T09:04:27.735Z,28.50
2018-06-15T09:05:27.727Z,24.80
2018-06-15T09:06:27.717Z,24.00
2018-06-15T09:07:27.712Z,29.40
2018-06-15T09:08:27.705Z,24.40
2018-06-15T09:09:27.689Z,28.10
2018-06-15T09:10:27.680Z,27.00
2018-06-15T09:11:27.670Z,26.40
2018-06-15T09:12:27.661Z,28.80
2018-06-15T09:13:27.653Z,26.30
2018-06-15T09:14:27.645Z,26.80
2018-06-15T09:15:27.644Z,24.70
2018-06-15T09:16:27.651Z,26.80
2018-06-15T09:17:27.680Z,25.10
2018-06-15T09:18:27.615Z,25.20
2018-06-15T09:19:27.604Z,23.70
2018-06-15T09:20:27.598Z,23.30
2018-06-15T09:21:27.587Z,23.50
2018-06-15T09:22:27.727Z,23.30
2018-06-15T09:23:27.567Z,25.80
2018-06-15T09:24:27.559Z,24.10
2018-06-15T09:25:27.560Z,26.30
2018-06-15T09:26:27.544Z,23.00
2018-06-15T09:27:27.539Z,24.10
2018-06-15T09:28:27.526Z,29.40
2018-06-15T09:29:27.518Z,28.70
2018-06-15T09:30:27.509Z,26.60
2018-06-15T09:31:27.500Z,28.70
2018-06-15T09:32:27.495Z,24.80
2018-06-15T09:33:27.480Z,27.20
2018-06-15T09:34:27.474Z,29.20
2018-06-15T09:35:27.465Z,30.80
2018-06-15T09:36:27.455Z,26.20
2018-06-15T09:37:27.453Z,25.90
2018-06-15T09:38:27.441Z,22.40
2018-06-15T09:39:27.429Z,23.10
2018-06-15T09:40:27.436Z,30.30
2018-06-15T09:41:27.464Z,25.20
2018-06-15T09:42:27.413Z,22.10
2018-06-15T09:43:27.397Z,25.00
2018-06-15T09:44:27.392Z,24.60
2018-06-15T09:45:27.379Z,20.00
2018-06-15T09:46:27.381Z,23.80
2018-06-15T09:47:27.380Z,21.90
2018-06-15T09:48:27.357Z,22.80
2018-06-15T09:49:27.348Z,22.10
2018-06-15T09:50:27.340Z,23.40
2018-06-15T09:51:27.342Z,23.00
2018-06-15T09:52:27.326Z,21.90
2018-06-15T09:53:27.327Z,22.80
2018-06-15T09:54:27.321Z,22.50
2018-06-15T09:55:27.309Z,22.10
2018-06-15T09:56:27.310Z,20.10
2018-06-15T09:57:27.286Z,20.90
2018-06-15T09:58:27.278Z,20.50
2018-06-15T09:59:27.274Z,19.70
2018-06-15T10:00:27.273Z,20.10
2018-06-15T10:01:27.269Z,18.30
2018-06-15T10:02:27.249Z,22.60
2018-06-15T10:03:27.247Z,19.60
2018-06-15T10:04:27.231Z,21.30
2018-06-15T10:05:27.231Z,23.00
2018-06-15T10:06:27.216Z,20.70
2018-06-15T10:07:27.206Z,19.80
2018-06-15T10:08:27.206Z,22.80
2018-06-15T10:09:27.201Z,24.50
2018-06-15T10:10:27.186Z,23.30
2018-06-15T10:11:27.182Z,27.50
2018-06-15T10:12:27.169Z,23.80
2018-06-15T10:13:27.158Z,22.60
2018-06-15T10:14:27.151Z,25.20
2018-06-15T10:15:27.139Z,23.10
2018-06-15T10:16:27.132Z,24.40
2018-06-15T10:17:27.123Z,22.50
2018-06-15T10:18:27.115Z,22.80
2018-06-15T10:19:27.117Z,24.90
2018-06-15T10:20:27.098Z,22.30
2018-06-15T10:21:27.099Z,25.40
2018-06-15T10:22:27.079Z,22.80
2018-06-15T10:23:27.071Z,23.30
2018-06-15T10:24:27.068Z,24.90
2018-06-15T10:25:27.053Z,22.30
2018-06-15T10:26:27.053Z,21.40
2018-06-15T10:27:27.046Z,24.00
2018-06-15T10:28:27.046Z,22.50
2018-06-15T10:29:27.029Z,23.50
2018-06-15T10:30:27.024Z,18.20
2018-06-15T10:31:27.010Z,19.50
2018-06-15T10:32:27.005Z,17.90
2018-06-15T10:33:27.000Z,17.60
2018-06-15T10:34:27.003Z,19.30
2018-06-15T10:35:27.008Z,17.60
2018-06-15T10:36:26.992Z,16.50
2018-06-15T10:37:26.990Z,19.00
2018-06-15T10:38:26.994Z,16.80
2018-06-15T10:40:25.866Z,14.20
2018-06-15T10:40:26.999Z,15.40
2018-06-15T10:41:33.249Z,16.10
2018-06-15T10:42:26.991Z,17.30
2018-06-15T10:43:26.988Z,16.00
2018-06-15T10:44:26.984Z,14.30
2018-06-15T10:45:27.007Z,15.20
2018-06-15T10:46:26.994Z,17.80
2018-06-15T10:47:26.992Z,17.50
2018-06-15T10:48:26.987Z,15.90
2018-06-15T10:49:26.984Z,15.40
2018-06-15T10:50:26.995Z,14.90
2018-06-15T10:51:26.996Z,15.00
2018-06-15T10:52:26.989Z,15.90
2018-06-15T10:53:27.008Z,18.00
2018-06-15T10:54:26.993Z,16.40
2018-06-15T10:55:26.999Z,15.80
2018-06-15T10:56:26.994Z,15.00
2018-06-15T10:57:26.995Z,14.40
2018-06-15T10:58:27.006Z,16.10
2018-06-15T10:59:26.995Z,16.60
2018-06-15T11:00:26.999Z,15.40
2018-06-15T11:01:26.999Z,16.10
2018-06-15T11:02:27.023Z,13.90
2018-06-15T11:03:27.007Z,13.70
2018-06-15T11:04:27.008Z,11.70
2018-06-15T11:05:27.011Z,12.40
2018-06-15T11:06:27.015Z,10.80
2018-06-15T11:07:27.014Z,10.40
2018-06-15T11:08:27.016Z,10.40
2018-06-15T11:09:27.018Z,11.40
2018-06-15T11:10:27.028Z,10.70
2018-06-15T11:11:27.025Z,12.10
2018-06-15T11:12:27.080Z,10.80
2018-06-15T11:13:27.037Z,12.70
2018-06-15T11:14:27.040Z,12.00
2018-06-15T11:15:27.029Z,12.90
2018-06-15T11:16:27.032Z,14.30
2018-06-15T11:17:27.033Z,12.40
2018-06-15T11:18:27.037Z,12.80
2018-06-15T11:19:27.037Z,13.90
2018-06-15T11:20:27.046Z,13.10
2018-06-15T11:21:27.043Z,16.80
2018-06-15T11:22:27.047Z,13.60
2018-06-15T11:23:27.052Z,18.10
2018-06-15T11:24:27.050Z,15.30
2018-06-15T11:25:27.052Z,17.20
2018-06-15T11:26:27.060Z,14.30
2018-06-15T11:27:27.055Z,16.10
2018-06-15T11:28:27.056Z,15.20
2018-06-15T11:29:27.061Z,15.30
2018-06-15T11:30:27.060Z,12.90
2018-06-15T11:31:27.065Z,17.20
2018-06-15T11:32:27.067Z,16.70
2018-06-15T11:33:27.058Z,18.50
2018-06-15T11:34:27.060Z,19.30
2018-06-15T11:35:27.056Z,18.30
2018-06-15T11:36:27.057Z,15.60
2018-06-15T11:37:27.053Z,16.70
2018-06-15T11:38:27.059Z,18.30
2018-06-15T11:39:27.054Z,15.10
2018-06-15T11:40:27.057Z,17.30
2018-06-15T11:41:27.051Z,16.70
2018-06-15T11:42:27.063Z,17.60
2018-06-15T11:43:27.047Z,16.60
2018-06-15T11:44:27.051Z,15.60
2018-06-15T11:45:27.043Z,17.00
2018-06-15T11:46:27.045Z,17.90
2018-06-15T11:47:27.036Z,16.80
2018-06-15T11:48:27.037Z,17.20
2018-06-15T11:49:27.032Z,19.90
2018-06-15T11:50:27.049Z,17.60
2018-06-15T11:51:27.078Z,18.90
2018-06-15T11:52:27.025Z,19.00
2018-06-15T11:53:27.025Z,19.00
2018-06-15T11:54:27.017Z,19.00
2018-06-15T11:55:27.015Z,18.40
2018-06-15T11:56:27.018Z,17.30
2018-06-15T11:57:27.049Z,17.20
2018-06-15T11:58:27.021Z,17.60
2018-06-15T11:59:27.006Z,19.40
2018-06-15T12:00:26.995Z,18.70
2018-06-15T12:01:26.996Z,15.60
2018-06-15T12:02:26.985Z,18.60
2018-06-15T12:03:26.986Z,16.80
2018-06-15T12:04:26.978Z,19.10
2018-06-15T12:05:26.973Z,18.00
2018-06-15T12:06:26.972Z,17.40
2018-06-15T12:07:26.963Z,16.20
2018-06-15T12:08:26.958Z,17.30
2018-06-15T12:09:26.953Z,17.80
2018-06-15T12:10:26.948Z,17.30
2018-06-15T12:11:26.952Z,18.10
2018-06-15T12:12:26.988Z,17.90
2018-06-15T12:13:26.940Z,18.00
2018-06-15T12:14:26.931Z,17.10
2018-06-15T12:15:26.922Z,18.00
2018-06-15T12:16:26.915Z,17.90
2018-06-15T12:17:26.911Z,17.10
2018-06-15T12:18:26.904Z,18.00
2018-06-15T12:19:26.898Z,17.90
2018-06-15T12:20:26.891Z,16.50
2018-06-15T12:21:26.885Z,15.60
2018-06-15T12:22:26.880Z,16.40
2018-06-15T12:23:26.872Z,18.40
2018-06-15T12:24:26.867Z,18.10
2018-06-15T12:25:26.864Z,18.50
2018-06-15T12:26:26.853Z,16.50
2018-06-15T12:27:26.849Z,16.30
2018-06-15T12:28:26.945Z,18.50
2018-06-15T12:29:26.838Z,18.00
2018-06-15T12:30:26.829Z,19.50
2018-06-15T12:31:26.826Z,16.90
2018-06-15T12:32:26.821Z,17.80
2018-06-15T12:33:26.806Z,17.30
2018-06-15T12:34:26.807Z,19.40
2018-06-15T12:35:26.798Z,28.10
2018-06-15T12:36:26.809Z,18.90
2018-06-15T12:37:26.786Z,18.30
2018-06-15T12:38:26.771Z,15.10
2018-06-15T12:39:26.773Z,17.10
2018-06-15T12:40:26.764Z,16.10
2018-06-15T12:41:26.751Z,15.30
2018-06-15T12:42:26.746Z,20.10
2018-06-15T12:43:26.735Z,15.10
2018-06-15T12:44:26.727Z,15.30
2018-06-15T12:45:26.729Z,14.40
2018-06-15T12:46:26.730Z,19.40
2018-06-15T12:47:26.719Z,17.40
2018-06-15T12:48:26.697Z,15.60
2018-06-15T12:49:26.745Z,16.60
2018-06-15T12:50:26.684Z,16.70
2018-06-15T12:51:26.681Z,14.50
2018-06-15T12:52:26.670Z,15.30